Time;durP1;ratioP1;P1;durP2;ratioP2;P2;SDS_P1;SDS_P2;PMS_P1;PMS_P2;Temp;Humidity;BMP_temperature;BMP_pressure;BME280_temperature;BME280_humidity;BME280_pressure;Samples;Min_cycle;Max_cycle;Signal;HPM_P1;HPM_P2
2023/04/14 00:02:24;;;;;;;1.33;0.40;;;;;;;;;;5044488;28;20053;-66
2023/04/14 00:04:52;;;;;;;0.57;0.40;;;;;;;;;;5042563;28;20080;-66
2023/04/14 00:07:18;;;;;;;2.35;1.15;;;;;;;;;;5043974;28;20135;-66
2023/04/14 00:09:44;;;;;;;1.02;0.30;;;;;;;;;;5044510;28;20153;-66
2023/04/14 00:12:10;;;;;;;0.30;0.30;;;;;;;;;;5045376;28;20033;-65
2023/04/14 00:14:36;;;;;;;1.38;0.90;;;;;;;;;;5045162;28;20106;-66
2023/04/14 00:17:02;;;;;;;0.98;0.65;;;;;;;;;;5043334;28;20424;-66
2023/04/14 00:19:28;;;;;;;2.15;0.80;;;;;;;;;;5044464;28;20045;-66
2023/04/14 00:21:54;;;;;;;0.40;0.30;;;;;;;;;;5044547;28;20037;-66
2023/04/14 00:24:20;;;;;;;0.60;0.40;;;;;;;;;;5045186;28;20057;-66
2023/04/14 00:26:49;;;;;;;1.35;0.65;;;;;;;;;;5045041;28;20044;-66
2023/04/14 00:29:15;;;;;;;1.52;0.50;;;;;;;;;;5043874;28;20055;-66
2023/04/14 00:31:41;;;;;;;1.80;0.75;;;;;;;;;;5045093;28;20407;-66
2023/04/14 00:34:10;;;;;;;0.25;0.25;;;;;;;;;;5044702;28;20048;-66
2023/04/14 00:36:36;;;;;;;0.55;0.40;;;;;;;;;;5041669;28;20048;-66
2023/04/14 00:39:03;;;;;;;0.65;0.40;;;;;;;;;;5044270;28;20752;-66
2023/04/14 00:41:33;;;;;;;1.15;0.65;;;;;;;;;;5043782;28;20102;-66
2023/04/14 00:44:00;;;;;;;0.38;0.30;;;;;;;;;;5043555;28;20045;-65
2023/04/14 00:46:27;;;;;;;0.45;0.40;;;;;;;;;;5043191;28;20049;-66
2023/04/14 00:48:54;;;;;;;1.75;0.55;;;;;;;;;;5044268;28;20080;-66
2023/04/14 00:51:20;;;;;;;0.63;0.20;;;;;;;;;;5042905;28;20175;-66
2023/04/14 00:53:46;;;;;;;0.80;0.40;;;;;;;;;;5045058;28;20558;-66
2023/04/14 00:56:12;;;;;;;0.45;0.40;;;;;;;;;;5045342;28;20136;-66
2023/04/14 00:58:38;;;;;;;0.68;0.50;;;;;;;;;;5044534;28;20130;-66
2023/04/14 01:01:05;;;;;;;0.50;0.30;;;;;;;;;;5042926;28;20479;-66
2023/04/14 01:03:31;;;;;;;0.50;0.50;;;;;;;;;;5044443;28;20064;-66
2023/04/14 01:05:57;;;;;;;1.50;0.70;;;;;;;;;;5044189;28;20049;-66
2023/04/14 01:08:23;;;;;;;1.13;0.45;;;;;;;;;;5044740;28;20521;-66
2023/04/14 01:11:15;;;;;;;1.65;0.60;;;;;;;;;;5043520;28;20824;-66
2023/04/14 01:14:02;;;;;;;1.10;0.45;;;;;;;;;;5027409;28;20045;-65
2023/04/14 01:16:31;;;;;;;0.57;0.35;;;;;;;;;;5044477;28;20059;-66
2023/04/14 01:18:59;;;;;;;1.13;0.52;;;;;;;;;;5041234;28;20052;-65
2023/04/14 01:21:30;;;;;;;0.73;0.22;;;;;;;;;;5044528;28;20044;-66
2023/04/14 01:23:59;;;;;;;0.57;0.57;;;;;;;;;;5039723;28;20533;-66
2023/04/14 01:26:29;;;;;;;0.60;0.40;;;;;;;;;;5042472;28;20040;-65
2023/04/14 01:29:04;;;;;;;1.55;0.70;;;;;;;;;;5042332;28;20044;-66
2023/04/14 01:31:42;;;;;;;1.52;0.55;;;;;;;;;;5044277;28;20095;-66
2023/04/14 01:34:27;;;;;;;3.90;0.82;;;;;;;;;;5042280;28;20080;-65
2023/04/14 01:37:13;;;;;;;1.80;0.73;;;;;;;;;;5042541;28;20507;-66
2023/04/14 01:39:41;;;;;;;0.52;0.50;;;;;;;;;;5040392;28;20493;-65
2023/04/14 01:42:10;;;;;;;0.75;0.40;;;;;;;;;;5042475;28;20415;-66
2023/04/14 01:44:36;;;;;;;0.50;0.50;;;;;;;;;;5044256;28;20053;-66
2023/04/14 01:47:05;;;;;;;1.23;0.40;;;;;;;;;;5042452;28;20102;-66
2023/04/14 01:49:32;;;;;;;1.48;0.93;;;;;;;;;;5043878;28;20048;-66
2023/04/14 01:51:59;;;;;;;0.68;0.50;;;;;;;;;;5041847;28;20514;-66
2023/04/14 01:54:26;;;;;;;0.60;0.30;;;;;;;;;;5041156;28;20045;-66
2023/04/14 01:56:53;;;;;;;0.40;0.30;;;;;;;;;;5041874;28;20049;-66
2023/04/14 01:59:20;;;;;;;1.50;0.60;;;;;;;;;;5042375;28;20575;-66
2023/04/14 02:01:48;;;;;;;1.85;0.50;;;;;;;;;;5043528;28;20053;-65
2023/04/14 02:04:15;;;;;;;1.13;0.38;;;;;;;;;;5042886;28;20070;-66
2023/04/14 02:06:41;;;;;;;0.85;0.40;;;;;;;;;;5042399;28;20053;-66
2023/04/14 02:09:11;;;;;;;1.05;0.50;;;;;;;;;;5042333;28;21264;-66
2023/04/14 02:11:37;;;;;;;1.42;0.47;;;;;;;;;;5043260;28;20061;-66
2023/04/14 02:14:04;;;;;;;0.65;0.40;;;;;;;;;;5042287;28;20132;-66
2023/04/14 02:16:31;;;;;;;0.77;0.55;;;;;;;;;;5040595;28;20047;-66
2023/04/14 02:18:58;;;;;;;1.08;0.40;;;;;;;;;;5042916;28;20132;-66
2023/04/14 02:21:25;;;;;;;0.95;0.70;;;;;;;;;;5042785;28;20102;-66
2023/04/14 02:23:51;;;;;;;0.60;0.30;;;;;;;;;;5041044;28;20385;-66
2023/04/14 02:26:21;;;;;;;0.40;0.40;;;;;;;;;;5043882;28;20037;-66
2023/04/14 02:28:53;;;;;;;2.60;0.47;;;;;;;;;;5040967;28;20061;-66
2023/04/14 02:31:20;;;;;;;;;;;;;;;;;;5043538;28;20064;-66
2023/04/14 02:33:46;;;;;;;0.70;0.50;;;;;;;;;;5041214;28;19962;-66
2023/04/14 02:36:14;;;;;;;0.40;0.40;;;;;;;;;;5040808;28;20479;-66
2023/04/14 02:39:01;;;;;;;1.65;0.28;;;;;;;;;;5042078;28;20056;-66
2023/04/14 02:41:29;;;;;;;1.02;0.63;;;;;;;;;;5042246;28;20056;-66
2023/04/14 02:44:15;;;;;;;0.50;0.30;;;;;;;;;;5042024;28;20139;-66
2023/04/14 02:46:42;;;;;;;0.50;0.40;;;;;;;;;;5042000;28;20491;-66
2023/04/14 02:49:10;;;;;;;0.85;0.40;;;;;;;;;;5042235;28;20307;-66
2023/04/14 02:51:37;;;;;;;0.30;0.30;;;;;;;;;;5042264;28;20052;-66
2023/04/14 02:54:06;;;;;;;0.77;0.50;;;;;;;;;;5041256;28;20144;-66
2023/04/14 02:56:34;;;;;;;0.20;0.20;;;;;;;;;;5043065;28;20094;-66
2023/04/14 02:59:01;;;;;;;0.30;0.30;;;;;;;;;;5038889;28;20056;-66
2023/04/14 03:01:28;;;;;;;0.57;0.30;;;;;;;;;;5041124;28;20048;-66
2023/04/14 03:03:56;;;;;;;0.52;0.30;;;;;;;;;;5037913;28;20083;-66
2023/04/14 03:06:22;;;;;;;1.00;0.73;;;;;;;;;;5042759;28;20041;-66
2023/04/14 03:08:50;;;;;;;0.70;0.57;;;;;;;;;;5042897;28;20556;-66
2023/04/14 03:11:16;;;;;;;1.08;0.65;;;;;;;;;;5041776;28;20055;-66
2023/04/14 03:13:43;;;;;;;0.68;0.32;;;;;;;;;;5043112;28;20033;-66
2023/04/14 03:16:09;;;;;;;0.73;0.30;;;;;;;;;;5042326;28;20595;-66
2023/04/14 03:18:36;;;;;;;1.60;1.05;;;;;;;;;;5042623;28;20498;-66
2023/04/14 03:21:02;;;;;;;0.60;0.45;;;;;;;;;;5040684;28;20084;-66
2023/04/14 03:23:28;;;;;;;0.43;0.38;;;;;;;;;;5043037;28;20065;-66
2023/04/14 03:25:55;;;;;;;0.40;0.30;;;;;;;;;;5041813;28;20053;-66
2023/04/14 03:28:22;;;;;;;0.55;0.30;;;;;;;;;;5041624;28;20069;-66
2023/04/14 03:30:49;;;;;;;0.50;0.50;;;;;;;;;;5042620;28;20570;-66
2023/04/14 03:33:18;;;;;;;0.50;0.40;;;;;;;;;;5042702;28;20045;-65
2023/04/14 03:35:46;;;;;;;0.20;0.20;;;;;;;;;;5044363;28;20487;-66
2023/04/14 03:38:14;;;;;;;0.40;0.40;;;;;;;;;;5045929;28;20122;-66
2023/04/14 03:40:43;;;;;;;0.88;0.40;;;;;;;;;;5046318;28;20533;-66
2023/04/14 03:43:11;;;;;;;0.50;0.30;;;;;;;;;;5045556;28;20063;-66
2023/04/14 03:45:38;;;;;;;0.30;0.30;;;;;;;;;;5044473;28;20417;-66
2023/04/14 03:48:06;;;;;;;0.93;0.50;;;;;;;;;;5045416;28;20807;-66
2023/04/14 03:50:39;;;;;;;0.65;0.35;;;;;;;;;;5045807;28;20132;-66
2023/04/14 03:53:07;;;;;;;0.52;0.30;;;;;;;;;;5044732;28;20568;-66
2023/04/14 03:55:35;;;;;;;1.00;0.40;;;;;;;;;;5043731;28;20048;-66
2023/04/14 03:58:01;;;;;;;0.70;0.40;;;;;;;;;;5045614;28;20511;-66
2023/04/14 04:00:29;;;;;;;0.38;0.25;;;;;;;;;;5045898;28;20099;-66
2023/04/14 04:02:55;;;;;;;0.63;0.25;;;;;;;;;;5043147;28;20049;-66
2023/04/14 04:05:21;;;;;;;0.55;0.40;;;;;;;;;;5046091;28;20048;-66
2023/04/14 04:07:49;;;;;;;0.38;0.30;;;;;;;;;;5043784;28;20136;-66
2023/04/14 04:10:16;;;;;;;0.20;0.20;;;;;;;;;;5046399;28;20073;-66
2023/04/14 04:12:43;;;;;;;0.47;0.22;;;;;;;;;;5041970;28;20127;-66
2023/04/14 04:15:09;;;;;;;0.50;0.28;;;;;;;;;;5044854;28;20048;-66
2023/04/14 04:17:36;;;;;;;0.57;0.40;;;;;;;;;;5044829;28;20459;-67
2023/04/14 04:20:06;;;;;;;0.40;0.40;;;;;;;;;;5045275;28;20597;-65
2023/04/14 04:22:33;;;;;;;0.47;0.47;;;;;;;;;;5044237;28;20084;-66
2023/04/14 04:24:59;;;;;;;0.82;0.20;;;;;;;;;;5043881;28;20049;-65
2023/04/14 04:27:26;;;;;;;0.93;0.57;;;;;;;;;;5045451;28;20064;-66
2023/04/14 04:29:52;;;;;;;0.60;0.40;;;;;;;;;;5044937;28;20056;-66
2023/04/14 04:32:18;;;;;;;1.05;0.40;;;;;;;;;;5045013;28;20415;-66
2023/04/14 04:34:44;;;;;;;0.77;0.75;;;;;;;;;;5045263;28;20060;-66
2023/04/14 04:37:10;;;;;;;0.52;0.20;;;;;;;;;;5045259;28;20045;-66
2023/04/14 04:39:36;;;;;;;0.60;0.43;;;;;;;;;;5045501;28;20060;-65
2023/04/14 04:42:03;;;;;;;0.85;0.30;;;;;;;;;;5044317;28;20064;-66
2023/04/14 04:44:31;;;;;;;0.77;0.40;;;;;;;;;;5043729;28;20055;-66
2023/04/14 04:46:57;;;;;;;0.40;0.30;;;;;;;;;;5044148;28;20049;-66
2023/04/14 04:49:23;;;;;;;0.43;0.40;;;;;;;;;;5044595;28;20525;-66
2023/04/14 04:51:49;;;;;;;0.32;0.32;;;;;;;;;;5045042;28;20136;-66
2023/04/14 04:54:15;;;;;;;0.40;0.40;;;;;;;;;;5044967;28;20051;-66
2023/04/14 04:56:41;;;;;;;2.22;0.60;;;;;;;;;;5045014;28;20048;-65
2023/04/14 04:59:07;;;;;;;0.60;0.40;;;;;;;;;;5043965;28;20053;-65
2023/04/14 05:01:33;;;;;;;0.50;0.40;;;;;;;;;;5041737;28;20041;-66
2023/04/14 05:03:59;;;;;;;0.90;0.47;;;;;;;;;;5043370;28;20055;-66
2023/04/14 05:06:26;;;;;;;0.60;0.40;;;;;;;;;;5045057;28;20512;-66
2023/04/14 05:08:53;;;;;;;0.40;0.40;;;;;;;;;;5044545;28;20056;-65
2023/04/14 05:11:19;;;;;;;0.60;0.40;;;;;;;;;;5042757;28;20033;-65
2023/04/14 05:13:45;;;;;;;0.93;0.40;;;;;;;;;;5045010;28;20446;-66
2023/04/14 05:16:16;;;;;;;0.57;0.40;;;;;;;;;;5043080;28;20798;-66
2023/04/14 05:18:42;;;;;;;0.30;0.22;;;;;;;;;;5044304;28;20044;-66
2023/04/14 05:21:10;;;;;;;0.80;0.40;;;;;;;;;;5040854;28;20133;-66
2023/04/14 05:23:37;;;;;;;1.15;0.50;;;;;;;;;;5044751;28;20158;-66
2023/04/14 05:26:03;;;;;;;0.68;0.35;;;;;;;;;;5043681;28;20052;-66
2023/04/14 05:28:29;;;;;;;0.50;0.40;;;;;;;;;;5044198;28;20055;-66
2023/04/14 05:30:55;;;;;;;0.40;0.30;;;;;;;;;;5041841;28;20049;-65
2023/04/14 05:33:21;;;;;;;1.60;0.40;;;;;;;;;;5044263;28;20174;-66
2023/04/14 05:35:49;;;;;;;0.35;0.30;;;;;;;;;;5040688;28;20127;-66
2023/04/14 05:38:16;;;;;;;1.23;0.40;;;;;;;;;;5040225;28;20049;-66
2023/04/14 05:40:42;;;;;;;0.45;0.32;;;;;;;;;;5041888;28;20057;-65
2023/04/14 05:43:08;;;;;;;0.40;0.30;;;;;;;;;;5042509;28;20040;-66
2023/04/14 05:45:34;;;;;;;0.30;0.20;;;;;;;;;;5039413;28;20045;-66
2023/04/14 05:48:00;;;;;;;0.43;0.40;;;;;;;;;;5037761;28;20048;-66
2023/04/14 05:50:26;;;;;;;0.38;0.38;;;;;;;;;;5042457;28;20041;-66
2023/04/14 05:52:52;;;;;;;0.95;0.30;;;;;;;;;;5040033;28;20037;-66
2023/04/14 05:55:19;;;;;;;1.13;0.50;;;;;;;;;;5041603;28;20041;-66
2023/04/14 05:57:45;;;;;;;0.57;0.30;;;;;;;;;;5042429;28;20188;-66
2023/04/14 06:00:11;;;;;;;0.35;0.30;;;;;;;;;;5040116;28;20041;-66
2023/04/14 06:02:38;;;;;;;0.32;0.25;;;;;;;;;;5043026;28;20372;-66
2023/04/14 06:05:06;;;;;;;0.40;0.40;;;;;;;;;;5040552;28;20040;-66
2023/04/14 06:07:32;;;;;;;0.65;0.40;;;;;;;;;;5041952;28;20045;-66
2023/04/14 06:09:58;;;;;;;0.68;0.40;;;;;;;;;;5041507;28;20107;-66
2023/04/14 06:12:24;;;;;;;0.40;0.40;;;;;;;;;;5042962;28;20563;-66
2023/04/14 06:14:50;;;;;;;0.38;0.30;;;;;;;;;;5041731;28;20037;-66
2023/04/14 06:17:16;;;;;;;0.43;0.40;;;;;;;;;;5041384;28;20059;-66
2023/04/14 06:19:42;;;;;;;2.08;0.47;;;;;;;;;;5042591;28;20045;-66
2023/04/14 06:22:08;;;;;;;0.55;0.30;;;;;;;;;;5040374;28;20219;-66
2023/04/14 06:24:34;;;;;;;0.30;0.30;;;;;;;;;;5042176;28;20059;-66
2023/04/14 06:27:04;;;;;;;0.30;0.20;;;;;;;;;;5041902;28;20060;-66
2023/04/14 06:29:30;;;;;;;0.65;0.20;;;;;;;;;;5040943;28;20163;-66
2023/04/14 06:31:56;;;;;;;0.63;0.47;;;;;;;;;;5041292;28;20128;-66
2023/04/14 06:34:23;;;;;;;1.10;0.35;;;;;;;;;;5040376;28;20049;-66
2023/04/14 06:36:49;;;;;;;1.27;0.55;;;;;;;;;;5041278;28;20037;-66
2023/04/14 06:39:15;;;;;;;0.32;0.32;;;;;;;;;;5042916;28;20812;-66
2023/04/14 06:41:42;;;;;;;0.40;0.40;;;;;;;;;;5041930;28;20076;-66
2023/04/14 06:44:08;;;;;;;1.02;0.52;;;;;;;;;;5041782;28;20399;-66
2023/04/14 06:46:35;;;;;;;0.88;0.60;;;;;;;;;;5040689;28;20041;-66
2023/04/14 06:49:02;;;;;;;1.05;0.47;;;;;;;;;;5039802;28;20690;-66
2023/04/14 06:51:28;;;;;;;0.57;0.55;;;;;;;;;;5042069;28;20395;-66
2023/04/14 06:53:54;;;;;;;1.75;0.38;;;;;;;;;;5042252;28;20041;-66
2023/04/14 06:56:20;;;;;;;0.77;0.77;;;;;;;;;;5041258;28;20037;-66
2023/04/14 06:58:46;;;;;;;1.92;1.30;;;;;;;;;;5042293;28;20078;-66
2023/04/14 07:01:12;;;;;;;4.22;1.30;;;;;;;;;;5039516;28;20119;-66
2023/04/14 07:03:38;;;;;;;1.17;1.05;;;;;;;;;;5039016;28;20049;-66
2023/04/14 07:06:05;;;;;;;1.55;1.38;;;;;;;;;;5040434;28;20088;-66
2023/04/14 07:08:33;;;;;;;3.83;1.52;;;;;;;;;;5042010;28;20076;-66
2023/04/14 07:11:00;;;;;;;3.00;0.93;;;;;;;;;;5039049;28;20521;-66
2023/04/14 07:13:26;;;;;;;2.30;1.15;;;;;;;;;;5045660;28;20060;-66
2023/04/14 07:15:53;;;;;;;3.47;1.30;;;;;;;;;;5041251;28;20037;-66
2023/04/14 07:18:19;;;;;;;2.83;1.60;;;;;;;;;;5043642;28;20494;-66
2023/04/14 07:20:45;;;;;;;1.75;1.02;;;;;;;;;;5045996;28;20037;-66
2023/04/14 07:23:11;;;;;;;4.07;1.27;;;;;;;;;;5044777;28;20040;-66
2023/04/14 07:25:37;;;;;;;2.53;1.50;;;;;;;;;;5044850;28;20102;-66
2023/04/14 07:28:05;;;;;;;1.15;0.88;;;;;;;;;;5041823;28;20080;-66
2023/04/14 07:30:31;;;;;;;2.78;0.95;;;;;;;;;;5043296;28;20072;-66
2023/04/14 07:32:57;;;;;;;7.63;1.80;;;;;;;;;;5042725;28;20076;-65
2023/04/14 07:35:26;;;;;;;3.00;1.20;;;;;;;;;;5043262;28;20113;-65
2023/04/14 07:37:52;;;;;;;1.48;0.90;;;;;;;;;;5043649;28;20673;-66
2023/04/14 07:40:18;;;;;;;5.13;1.65;;;;;;;;;;5044885;28;20068;-65
2023/04/14 07:42:46;;;;;;;3.50;1.38;;;;;;;;;;5044023;28;20041;-66
2023/04/14 07:45:12;;;;;;;1.75;1.38;;;;;;;;;;5043480;28;20080;-66
2023/04/14 07:47:38;;;;;;;2.25;1.35;;;;;;;;;;5043307;28;20388;-66
2023/04/14 07:50:04;;;;;;;3.47;1.25;;;;;;;;;;5045658;28;20106;-66
2023/04/14 07:52:30;;;;;;;3.40;1.60;;;;;;;;;;5044107;28;20163;-66
2023/04/14 07:54:56;;;;;;;4.18;1.08;;;;;;;;;;5045346;28;20507;-66
2023/04/14 07:57:22;;;;;;;2.90;0.90;;;;;;;;;;5044461;28;20052;-66
2023/04/14 07:59:48;;;;;;;1.75;1.15;;;;;;;;;;5046105;28;20068;-66
2023/04/14 08:02:14;;;;;;;2.45;1.23;;;;;;;;;;5045974;28;20131;-66
2023/04/14 08:04:41;;;;;;;2.92;0.95;;;;;;;;;;5045607;28;20506;-66
2023/04/14 08:07:07;;;;;;;1.48;1.23;;;;;;;;;;5044480;28;20048;-66
2023/04/14 08:09:34;;;;;;;2.00;1.10;;;;;;;;;;5045712;28;20044;-66
2023/04/14 08:12:00;;;;;;;2.42;0.93;;;;;;;;;;5037317;28;20091;-66
2023/04/14 08:14:26;;;;;;;1.75;1.20;;;;;;;;;;5043469;28;20056;-66
2023/04/14 08:16:52;;;;;;;2.45;1.50;;;;;;;;;;5042108;28;20060;-66
2023/04/14 08:19:18;;;;;;;4.03;1.80;;;;;;;;;;5041441;28;20049;-66
2023/04/14 08:21:44;;;;;;;3.00;1.67;;;;;;;;;;5045330;28;20099;-66
2023/04/14 08:24:11;;;;;;;4.07;1.77;;;;;;;;;;5041842;28;20114;-67
2023/04/14 08:26:37;;;;;;;4.47;1.50;;;;;;;;;;5039725;28;20148;-67
2023/04/14 08:29:03;;;;;;;2.72;1.52;;;;;;;;;;5028874;28;20053;-67
2023/04/14 08:31:29;;;;;;;4.90;1.50;;;;;;;;;;5046666;28;20053;-67
2023/04/14 08:33:56;;;;;;;3.40;1.45;;;;;;;;;;5046045;28;20099;-66
2023/04/14 08:36:22;;;;;;;4.53;1.63;;;;;;;;;;5042222;28;20119;-67
2023/04/14 08:38:48;;;;;;;4.53;1.35;;;;;;;;;;5039772;28;20483;-65
2023/04/14 08:41:15;;;;;;;3.60;1.20;;;;;;;;;;5040349;28;20047;-64
2023/04/14 08:43:41;;;;;;;3.13;1.35;;;;;;;;;;5045485;28;20045;-65
2023/04/14 08:46:10;;;;;;;1.50;1.20;;;;;;;;;;5045298;28;20462;-66
2023/04/14 08:48:37;;;;;;;2.55;1.30;;;;;;;;;;5044044;28;20048;-65
2023/04/14 08:51:31;;;;;;;3.53;1.40;;;;;;;;;;5045153;28;20032;-66
2023/04/14 08:53:57;;;;;;;1.63;1.13;;;;;;;;;;5021159;28;20064;-65
2023/04/14 08:56:24;;;;;;;1.63;1.05;;;;;;;;;;5042166;28;20124;-66
2023/04/14 08:58:50;;;;;;;5.60;1.45;;;;;;;;;;5042638;28;20044;-66
2023/04/14 09:01:16;;;;;;;5.03;1.73;;;;;;;;;;5044383;28;20033;-65
2023/04/14 09:03:42;;;;;;;7.05;1.67;;;;;;;;;;5042343;28;20811;-65
2023/04/14 09:06:09;;;;;;;2.22;1.05;;;;;;;;;;5036425;28;20760;-64
2023/04/14 09:08:35;;;;;;;2.67;1.23;;;;;;;;;;5045480;28;20049;-63
2023/04/14 09:11:02;;;;;;;6.55;1.52;;;;;;;;;;5040022;28;20118;-63
2023/04/14 09:13:28;;;;;;;5.38;1.63;;;;;;;;;;5037847;28;20091;-64
2023/04/14 09:15:55;;;;;;;7.88;2.25;;;;;;;;;;5034112;28;20051;-63
2023/04/14 09:18:21;;;;;;;4.15;1.70;;;;;;;;;;5036136;28;20084;-64
2023/04/14 09:20:47;;;;;;;8.65;2.13;;;;;;;;;;5040868;28;20056;-64
2023/04/14 09:23:14;;;;;;;3.70;1.60;;;;;;;;;;5042939;28;20483;-64
2023/04/14 09:25:41;;;;;;;5.30;1.52;;;;;;;;;;5042494;28;20056;-64
2023/04/14 09:28:07;;;;;;;2.30;1.20;;;;;;;;;;5040792;28;20049;-64
2023/04/14 09:30:33;;;;;;;5.07;1.55;;;;;;;;;;5045809;28;20041;-64
2023/04/14 09:33:03;;;;;;;3.40;1.25;;;;;;;;;;5045704;28;20053;-64
2023/04/14 09:35:47;;;;;;;3.83;1.10;;;;;;;;;;5040829;28;20337;-64
2023/04/14 09:38:13;;;;;;;3.60;1.70;;;;;;;;;;5045444;28;20045;-65
2023/04/14 09:40:41;;;;;;;4.13;1.20;;;;;;;;;;5044952;28;20640;-64
2023/04/14 09:43:07;;;;;;;4.15;1.13;;;;;;;;;;5045968;28;20044;-64
2023/04/14 09:45:41;;;;;;;3.35;1.60;;;;;;;;;;5045928;28;20051;-64
2023/04/14 09:48:07;;;;;;;1.73;1.00;;;;;;;;;;5044607;28;20487;-64
2023/04/14 09:50:53;;;;;;;5.38;1.95;;;;;;;;;;5044874;28;20483;-64
2023/04/14 09:53:26;;;;;;;3.38;1.40;;;;;;;;;;5036342;28;20052;-64
2023/04/14 09:55:52;;;;;;;5.43;1.30;;;;;;;;;;5045599;28;20041;-64
2023/04/14 09:58:21;;;;;;;2.90;1.15;;;;;;;;;;5045615;28;20041;-62
2023/04/14 10:00:47;;;;;;;2.92;0.90;;;;;;;;;;5045786;28;20102;-64
2023/04/14 10:03:13;;;;;;;3.40;0.98;;;;;;;;;;5043188;28;20094;-64
2023/04/14 10:05:39;;;;;;;5.07;1.50;;;;;;;;;;5043573;28;20440;-64
2023/04/14 10:08:05;;;;;;;3.10;1.88;;;;;;;;;;5045194;28;20126;-64
2023/04/14 10:10:31;;;;;;;6.20;2.03;;;;;;;;;;5044081;28;20053;-65
2023/04/14 10:12:59;;;;;;;4.68;2.28;;;;;;;;;;5044719;28;20052;-64
2023/04/14 10:15:26;;;;;;;6.20;1.67;;;;;;;;;;5045984;28;20064;-64
2023/04/14 10:17:52;;;;;;;3.90;1.38;;;;;;;;;;5040188;28;20049;-64
2023/04/14 10:20:18;;;;;;;4.38;1.10;;;;;;;;;;5042664;28;20080;-65
2023/04/14 10:22:44;;;;;;;4.60;1.38;;;;;;;;;;5044686;28;20063;-63
2023/04/14 10:25:10;;;;;;;3.35;0.85;;;;;;;;;;5043733;28;20053;-62
2023/04/14 10:27:36;;;;;;;3.13;0.85;;;;;;;;;;5043700;28;20041;-62
2023/04/14 10:30:04;;;;;;;3.17;1.55;;;;;;;;;;5041428;28;20071;-62
2023/04/14 10:32:32;;;;;;;3.60;1.95;;;;;;;;;;5037937;28;20052;-62
2023/04/14 10:35:12;;;;;;;3.63;0.95;;;;;;;;;;5023732;28;20046;-62
2023/04/14 10:37:38;;;;;;;2.70;0.80;;;;;;;;;;5032067;28;20526;-62
2023/04/14 10:40:05;;;;;;;2.17;0.93;;;;;;;;;;5041455;28;20082;-62
2023/04/14 10:42:51;;;;;;;2.70;0.90;;;;;;;;;;5036023;28;20051;-63
2023/04/14 10:45:17;;;;;;;1.58;0.60;;;;;;;;;;5044644;28;20453;-62
2023/04/14 10:47:44;;;;;;;3.72;1.33;;;;;;;;;;5047265;28;20037;-62
2023/04/14 10:50:23;;;;;;;3.63;0.80;;;;;;;;;;5047233;28;20526;-62
2023/04/14 10:52:50;;;;;;;2.95;1.23;;;;;;;;;;5039639;28;20049;-62
2023/04/14 10:55:20;;;;;;;5.07;1.50;;;;;;;;;;5047733;28;20106;-61
2023/04/14 10:57:46;;;;;;;3.70;1.08;;;;;;;;;;5045069;28;20055;-62
2023/04/14 11:00:19;;;;;;;4.22;1.50;;;;;;;;;;5029086;28;20037;-61
2023/04/14 11:02:54;;;;;;;4.18;1.17;;;;;;;;;;5031974;28;20049;-61
2023/04/14 11:05:21;;;;;;;2.90;1.00;;;;;;;;;;5028546;28;20065;-61
2023/04/14 11:07:49;;;;;;;3.20;1.42;;;;;;;;;;5043386;28;20546;-62
2023/04/14 11:10:21;;;;;;;1.67;0.57;;;;;;;;;;5046633;28;20208;-62
2023/04/14 11:12:48;;;;;;;2.20;0.90;;;;;;;;;;5047134;28;20132;-61
2023/04/14 11:15:15;;;;;;;4.68;1.65;;;;;;;;;;5045884;28;20067;-62
2023/04/14 11:17:42;;;;;;;2.15;1.00;;;;;;;;;;5043003;28;20427;-62
2023/04/14 11:20:14;;;;;;;2.08;0.90;;;;;;;;;;5046505;28;20071;-61
2023/04/14 11:22:42;;;;;;;4.38;1.10;;;;;;;;;;5044379;28;20049;-62
2023/04/14 11:25:10;;;;;;;1.52;0.70;;;;;;;;;;5045352;28;20049;-61
2023/04/14 11:27:38;;;;;;;1.35;0.50;;;;;;;;;;5047144;28;20081;-61
2023/04/14 11:30:05;;;;;;;1.80;0.43;;;;;;;;;;5035744;28;20094;-62
2023/04/14 11:32:44;;;;;;;3.28;1.17;;;;;;;;;;5039069;28;20518;-61
2023/04/14 11:35:10;;;;;;;3.25;1.13;;;;;;;;;;5046315;28;20052;-61
2023/04/14 11:37:36;;;;;;;3.88;0.95;;;;;;;;;;5037621;28;20416;-61
2023/04/14 11:40:04;;;;;;;4.28;1.27;;;;;;;;;;5028548;28;20435;-61
2023/04/14 11:42:30;;;;;;;3.45;1.02;;;;;;;;;;5040679;28;20092;-61
2023/04/14 11:44:59;;;;;;;1.23;1.08;;;;;;;;;;5041114;28;20269;-62
2023/04/14 11:47:25;;;;;;;3.72;1.27;;;;;;;;;;5044353;28;20165;-61
2023/04/14 11:49:51;;;;;;;2.92;1.05;;;;;;;;;;5041507;28;20060;-61
2023/04/14 11:52:19;;;;;;;3.72;1.17;;;;;;;;;;5040498;28;20033;-61
2023/04/14 11:54:45;;;;;;;3.40;1.25;;;;;;;;;;5046012;28;20102;-61
2023/04/14 11:57:12;;;;;;;4.25;1.45;;;;;;;;;;5043676;28;20427;-61
2023/04/14 11:59:42;;;;;;;3.47;1.23;;;;;;;;;;5044305;28;20045;-62
2023/04/14 12:02:14;;;;;;;3.92;1.40;;;;;;;;;;5040540;28;20041;-61
2023/04/14 12:04:40;;;;;;;3.47;1.50;;;;;;;;;;5037261;28;20092;-63
2023/04/14 12:07:10;;;;;;;4.30;1.38;;;;;;;;;;5027416;28;20049;-63
2023/04/14 12:09:39;;;;;;;3.05;0.90;;;;;;;;;;5048991;28;20048;-63
2023/04/14 12:12:13;;;;;;;3.15;1.38;;;;;;;;;;5048434;28;20056;-63
2023/04/14 12:14:40;;;;;;;3.72;1.33;;;;;;;;;;5048568;28;20502;-63
2023/04/14 12:17:08;;;;;;;1.45;0.95;;;;;;;;;;5047177;28;20553;-62
2023/04/14 12:19:34;;;;;;;0.98;0.65;;;;;;;;;;5044809;28;20075;-63
2023/04/14 12:22:01;;;;;;;1.58;0.73;;;;;;;;;;5046548;28;20037;-62
2023/04/14 12:24:41;;;;;;;2.30;1.23;;;;;;;;;;5047523;28;20086;-63
2023/04/14 12:27:08;;;;;;;3.58;1.00;;;;;;;;;;5045369;28;20148;-63
2023/04/14 12:29:34;;;;;;;3.40;0.90;;;;;;;;;;5046691;28;20048;-63
2023/04/14 12:32:01;;;;;;;3.47;1.20;;;;;;;;;;5045918;28;20074;-64
2023/04/14 12:34:28;;;;;;;3.20;0.85;;;;;;;;;;5045399;28;20592;-64
2023/04/14 12:36:55;;;;;;;3.33;1.40;;;;;;;;;;5045468;28;20439;-64
2023/04/14 12:39:21;;;;;;;3.33;1.38;;;;;;;;;;5045922;28;20068;-64
2023/04/14 12:41:47;;;;;;;1.95;1.10;;;;;;;;;;5045719;28;20556;-64
2023/04/14 12:44:18;;;;;;;2.83;1.00;;;;;;;;;;5044637;28;20098;-64
2023/04/14 12:46:46;;;;;;;5.50;1.13;;;;;;;;;;5046267;28;20496;-63
2023/04/14 12:49:31;;;;;;;4.07;1.40;;;;;;;;;;5041987;28;20049;-64
2023/04/14 12:51:57;;;;;;;3.30;1.13;;;;;;;;;;5042787;28;20056;-63
2023/04/14 12:54:23;;;;;;;5.25;1.33;;;;;;;;;;5043576;28;20098;-64
2023/04/14 12:56:49;;;;;;;1.92;1.10;;;;;;;;;;5042933;28;20045;-63
2023/04/14 12:59:15;;;;;;;3.30;1.00;;;;;;;;;;5036437;28;20041;-64
2023/04/14 13:01:41;;;;;;;1.92;0.90;;;;;;;;;;5035618;28;20574;-63
2023/04/14 13:04:07;;;;;;;1.70;0.82;;;;;;;;;;5038824;28;20056;-63
2023/04/14 13:06:34;;;;;;;2.08;1.30;;;;;;;;;;5046038;28;20080;-63
2023/04/14 13:08:59;;;;;;;2.80;1.08;;;;;;;;;;5044810;28;20503;-63
2023/04/14 13:11:26;;;;;;;1.60;1.02;;;;;;;;;;5045716;28;20051;-63
2023/04/14 13:13:52;;;;;;;3.20;1.13;;;;;;;;;;5045930;28;20060;-63
2023/04/14 13:16:18;;;;;;;3.85;1.30;;;;;;;;;;5045426;28;20041;-63
2023/04/14 13:18:45;;;;;;;1.95;0.50;;;;;;;;;;5046372;28;20045;-63
2023/04/14 13:21:11;;;;;;;3.78;1.15;;;;;;;;;;5045735;28;20196;-63
2023/04/14 13:23:37;;;;;;;1.95;1.00;;;;;;;;;;5045672;28;20049;-63
2023/04/14 13:26:03;;;;;;;2.75;1.10;;;;;;;;;;5040728;28;20488;-63
2023/04/14 13:28:30;;;;;;;1.42;1.30;;;;;;;;;;5046574;28;20045;-63
2023/04/14 13:30:57;;;;;;;4.65;1.20;;;;;;;;;;5044725;28;20564;-64
2023/04/14 13:33:23;;;;;;;1.40;0.63;;;;;;;;;;5042907;28;20041;-63
2023/04/14 13:35:50;;;;;;;2.60;0.95;;;;;;;;;;5045758;28;20053;-63
2023/04/14 13:38:16;;;;;;;1.92;0.90;;;;;;;;;;5044039;28;20707;-63
2023/04/14 13:40:42;;;;;;;5.45;1.00;;;;;;;;;;5045749;28;20094;-63
2023/04/14 13:43:08;;;;;;;1.95;0.90;;;;;;;;;;5044807;28;20048;-63
2023/04/14 13:45:35;;;;;;;2.92;0.90;;;;;;;;;;5045641;28;20470;-63
2023/04/14 13:48:01;;;;;;;3.60;1.27;;;;;;;;;;5046398;28;20052;-64
2023/04/14 13:50:27;;;;;;;3.15;1.15;;;;;;;;;;5043638;28;20057;-63
2023/04/14 13:52:53;;;;;;;3.40;1.17;;;;;;;;;;5044911;28;20136;-64
2023/04/14 13:55:19;;;;;;;2.83;1.00;;;;;;;;;;5043530;28;20128;-64
2023/04/14 13:57:45;;;;;;;3.60;1.35;;;;;;;;;;5044007;28;20542;-63
2023/04/14 14:00:12;;;;;;;1.30;0.90;;;;;;;;;;5043924;28;20047;-64
2023/04/14 14:02:38;;;;;;;4.07;1.00;;;;;;;;;;5044750;28;20832;-64
2023/04/14 14:05:06;;;;;;;2.88;1.33;;;;;;;;;;5040049;28;20127;-64
2023/04/14 14:07:32;;;;;;;1.52;0.85;;;;;;;;;;5042963;28;20487;-64
2023/04/14 14:09:58;;;;;;;2.65;0.90;;;;;;;;;;5043210;28;20071;-64
2023/04/14 14:12:24;;;;;;;2.42;1.20;;;;;;;;;;5037989;28;20128;-64
2023/04/14 14:14:50;;;;;;;2.83;0.95;;;;;;;;;;5043538;28;20045;-64
2023/04/14 14:17:16;;;;;;;3.92;0.90;;;;;;;;;;5043989;28;20099;-64
2023/04/14 14:19:42;;;;;;;3.15;0.93;;;;;;;;;;5043791;28;20076;-64
2023/04/14 14:22:08;;;;;;;3.40;0.85;;;;;;;;;;5043366;28;20045;-64
2023/04/14 14:24:34;;;;;;;3.03;0.98;;;;;;;;;;5044594;28;20494;-64
2023/04/14 14:27:00;;;;;;;1.42;0.80;;;;;;;;;;5043730;28;20132;-64
2023/04/14 14:29:26;;;;;;;2.70;0.57;;;;;;;;;;5044339;28;20048;-64
2023/04/14 14:31:52;;;;;;;2.70;0.63;;;;;;;;;;5043543;28;20057;-64
2023/04/14 14:34:19;;;;;;;3.20;0.63;;;;;;;;;;5038734;28;21181;-64
2023/04/14 14:36:46;;;;;;;1.75;0.40;;;;;;;;;;5042389;28;20072;-64
2023/04/14 14:39:12;;;;;;;2.30;0.90;;;;;;;;;;5042986;28;20080;-65
2023/04/14 14:41:38;;;;;;;1.20;0.57;;;;;;;;;;5035727;28;20045;-64
2023/04/14 14:44:04;;;;;;;3.53;0.82;;;;;;;;;;5033203;28;20464;-64
2023/04/14 14:46:30;;;;;;;2.45;0.98;;;;;;;;;;5030685;28;20041;-64